Home > Products > Valid Products > MTR

000
SAUS46 KPDT 302057
MTRMEH
METAR KMEH 302056Z AUTO VRB04KT 10SM CLR 29/10 A3013 RMK AO2 SLP172
T02890100 58006





000
SAUS46 KPDT 302057
MTRMEH
METAR KMEH 302056Z AUTO VRB04KT 10SM CLR 29/10 A3013 RMK AO2 SLP172
T02890100 58006





000
SAUS46 KPDT 301957
MTRMEH
METAR KMEH 301956Z AUTO VRB05KT 10SM CLR 29/09 A3014 RMK AO2 SLP176
T02890094





000
SAUS46 KPDT 301856
MTRMEH
METAR KMEH 301856Z AUTO VRB03KT 10SM CLR 28/11 A3015 RMK AO2 SLP178
T02780111





000
SAUS46 KPDT 301757
MTRMEH
METAR KMEH 301756Z AUTO VRB03KT 10SM CLR 27/12 A3015 RMK AO2 SLP178
T02670117 10267 20117 57002





000
SAUS46 KPDT 301757
MTRMEH
METAR KMEH 301756Z AUTO VRB03KT 10SM CLR 27/12 A3015 RMK AO2 SLP178
T02670117 10267 20117 57002





000
SAUS46 KPDT 301657
MTRMEH
METAR KMEH 301656Z AUTO 25004KT 10SM CLR 24/12 A3015 RMK AO2 SLP179
T02440117





000
SAUS46 KPDT 301557
MTRMEH
METAR KMEH 301556Z AUTO 00000KT 10SM CLR 23/12 A3016 RMK AO2 SLP178
T02330117





000
SAUS46 KPDT 301457
MTRMEH
METAR KMEH 301456Z AUTO 00000KT 10SM CLR 21/12 A3016 RMK AO2 SLP176
T02110122 50003





000
SAUS46 KPDT 301457
MTRMEH
METAR KMEH 301456Z AUTO 00000KT 10SM CLR 21/12 A3016 RMK AO2 SLP176
T02110122 50003





000
SAUS46 KPDT 301357
MTRMEH
METAR KMEH 301356Z AUTO 00000KT 10SM CLR 16/12 A3016 RMK AO2 SLP181
T01560117





000
SAUS46 KPDT 301357
MTRMEH
METAR KMEH 301356Z AUTO 00000KT 10SM CLR 16/12 A3016 RMK AO2 SLP181
T01560117





000
SAUS46 KPDT 301256
MTRMEH
METAR KMEH 301256Z AUTO 00000KT 10SM CLR 13/11 A3016 RMK AO2 SLP183
T01280106





000
SAUS46 KPDT 301256
MTRMEH
METAR KMEH 301256Z AUTO 00000KT 10SM CLR 13/11 A3016 RMK AO2 SLP183
T01280106





000
SAUS46 KPDT 301157
MTRMEH
METAR KMEH 301156Z AUTO 00000KT 10SM CLR 12/11 A3015 RMK AO2 SLP177
T01220106 10178 20122 51002





000
SAUS46 KPDT 301157
MTRMEH
METAR KMEH 301156Z AUTO 00000KT 10SM CLR 12/11 A3015 RMK AO2 SLP177
T01220106 10178 20122 51002





000
SAUS46 KPDT 301058
MTRMEH
METAR KMEH 301056Z AUTO 00000KT 10SM CLR 13/12 A3014 RMK AO2 SLP176
T01330117





000
SAUS46 KPDT 301058
MTRMEH
METAR KMEH 301056Z AUTO 00000KT 10SM CLR 13/12 A3014 RMK AO2 SLP176
T01330117





000
SAUS46 KPDT 300956
MTRMEH
METAR KMEH 300956Z AUTO 00000KT 10SM CLR 14/12 A3014 RMK AO2 SLP175
T01440122





000
SAUS46 KPDT 300857
MTRMEH
METAR KMEH 300856Z AUTO 00000KT 10SM CLR 16/13 A3014 RMK AO2 SLP174
T01560128 51011





000
SAUS46 KPDT 300757
MTRMEH
METAR KMEH 300756Z AUTO 00000KT 10SM FEW090 16/13 A3013 RMK AO2
SLP172 T01610128 403220156





000
SAUS46 KPDT 300656
MTRMEH
METAR KMEH 300656Z AUTO 00000KT 10SM FEW090 17/13 A3012 RMK AO2
SLP169 T01670133





000
SAUS46 KPDT 300556
MTRMEH
METAR KMEH 300556Z AUTO 00000KT 10SM CLR 18/14 A3010 RMK AO2 SLP162
T01780139 10317 20178 53017





000
SAUS46 KPDT 300556
MTRMEH
METAR KMEH 300556Z AUTO 00000KT 10SM CLR 18/14 A3010 RMK AO2 SLP162
T01780139 10317 20178 53017





000
SAUS46 KPDT 300500
MTRMEH
METAR KMEH 300456Z AUTO 00000KT 10SM CLR 20/14 A3009 RMK AO2 SLP156
T02000144





000
SAUS46 KPDT 300500
MTRMEH
METAR KMEH 300456Z AUTO 00000KT 10SM CLR 20/14 A3009 RMK AO2 SLP156
T02000144





000
SAUS46 KPDT 300356
MTRMEH
METAR KMEH 300356Z AUTO 00000KT 10SM CLR 23/13 A3006 RMK AO2 SLP145
T02280133





000
SAUS46 KPDT 300257
MTRMEH
METAR KMEH 300256Z AUTO 00000KT 10SM CLR 27/12 A3004 RMK AO2 SLP137
T02720122 53001





000
SAUS46 KPDT 300157
MTRMEH
METAR KMEH 300156Z AUTO VRB04KT 10SM CLR 30/11 A3004 RMK AO2 SLP133
T03000111





000
SAUS46 KPDT 300157
MTRMEH
METAR KMEH 300156Z AUTO VRB04KT 10SM CLR 30/11 A3004 RMK AO2 SLP133
T03000111





000
SAUS46 KPDT 300056
MTRMEH
METAR KMEH 300056Z AUTO VRB04KT 10SM CLR 31/12 A3004 RMK AO2 SLP134
T03060117





000
SAUS46 KPDT 292357
MTRMEH
METAR KMEH 292356Z AUTO VRB03KT 10SM CLR 32/12 A3004 RMK AO2 SLP133
60000 T03170122 10322 20267 56011





000
SAUS46 KPDT 292357
MTRMEH
METAR KMEH 292356Z AUTO VRB03KT 10SM CLR 32/12 A3004 RMK AO2 SLP133
60000 T03170122 10322 20267 56011





000
SAUS46 KPDT 292259
MTRMEH
METAR KMEH 292256Z AUTO VRB05KT 10SM CLR 32/13 A3005 RMK AO2 SLP137
T03170128





000
SAUS46 KPDT 292156
MTRMEH
METAR KMEH 292156Z AUTO VRB05KT 10SM CLR 31/13 A3006 RMK AO2 SLP142
T03110128





000
SAUS46 KPDT 292156
MTRMEH
METAR KMEH 292156Z AUTO VRB05KT 10SM CLR 31/13 A3006 RMK AO2 SLP142
T03110128





000
SAUS46 KPDT 292056
MTRMEH
METAR KMEH 292056Z AUTO 00000KT 10SM BKN120 29/13 A3008 RMK AO2
RAB14E24 SLP148 P0000 60000 T02940128 58003





000
SAUS46 KPDT 292056
MTRMEH
METAR KMEH 292056Z AUTO 00000KT 10SM BKN120 29/13 A3008 RMK AO2
RAB14E24 SLP148 P0000 60000 T02940128 58003





000
SAUS46 KPDT 292004 COR
MTRMEH
METAR KMEH 291956Z AUTO 00000KT 10SM FEW055 BKN120 27/13 A3009 RMK
AO2 SLP154 T02720133





000
SAUS46 KPDT 291958
MTRMEH
METAR KMEH
NO CARRIER

RING

CONNECT 1200

LAXMTRNXF ALL
TTAA00 KNXF 291956
METAR KNXF 291956Z AUTO 21006KT 7SM CLR 24/18 A2990 RMK AO2 SLP209
T02390183 $





000
SAUS46 KPDT 291958
MTRMEH
METAR KMEH
NO CARRIER

RING

CONNECT 1200

LAXMTRNXF ALL
TTAA00 KNXF 291956
METAR KNXF 291956Z AUTO 21006KT 7SM CLR 24/18 A2990 RMK AO2 SLP209
T02390183 $





000
SAUS46 KPDT 291856
MTRMEH
METAR KMEH 291856Z AUTO 00000KT 10SM CLR 28/14 A3010 RMK AO2
RAB02E13 SLP154 P0000 T02780144





000
SAUS46 KPDT 291756
MTRMEH
METAR KMEH 291756Z AUTO 00000KT 10SM SCT110 27/14 A3009 RMK AO2
SLP148 60000 T02670139 10272 20189 51002





000
SAUS46 KPDT 291756
MTRMEH
METAR KMEH 291756Z AUTO 00000KT 10SM SCT110 27/14 A3009 RMK AO2
SLP148 60000 T02670139 10272 20189 51002





000
SAUS46 KPDT 291657
MTRMEH
METAR KMEH 291656Z AUTO 00000KT 10SM CLR 26/15 A3008 RMK AO2 SLP148
T02560150





000
SAUS46 KPDT 291558
MTRMEH
METAR KMEH 291556Z AUTO 00000KT 10SM CLR 23/15 A3009 RMK AO2 SLP154
T02330150





000
SAUS46 KPDT 291457
MTRMEH
METAR KMEH 291456Z AUTO 00000KT 10SM CLR 21/17 A3008 RMK AO2 RAE07
SLP151 P0000 60000 T02110167 51022





000
SAUS46 KPDT 291457
MTRMEH
METAR KMEH 291456Z AUTO 00000KT 10SM CLR 21/17 A3008 RMK AO2 RAE07
SLP151 P0000 60000 T02110167 51022





000
SAUS46 KPDT 291357
MTRMEH
METAR KMEH 291356Z AUTO 00000KT 10SM -RA FEW045 SCT070 SCT110 20/16
A3007 RMK AO2 RAB56 SLP147 P0000 T02000161





000
SAUS46 KPDT 291357
MTRMEH
METAR KMEH 291356Z AUTO 00000KT 10SM -RA FEW045 SCT070 SCT110 20/16
A3007 RMK AO2 RAB56 SLP147 P0000 T02000161





000
SAUS46 KPDT 291258
MTRMEH
METAR KMEH 291256Z AUTO 00000KT 10SM CLR 19/16 A3003 RMK AO2 SLP130
T01940156





000
SAUS46 KPDT 291258
MTRMEH
METAR KMEH 291256Z AUTO 00000KT 10SM CLR 19/16 A3003 RMK AO2 SLP130
T01940156





000
SAUS46 KPDT 291157
MTRMEH
METAR KMEH 291156Z AUTO 00000KT 10SM SCT120 20/15 A3001 RMK AO2
SLP120 60001 70001 T02000150 10250 20183 58007





000
SAUS46 KPDT 291157
MTRMEH
METAR KMEH 291156Z AUTO 00000KT 10SM SCT120 20/15 A3001 RMK AO2
SLP120 60001 70001 T02000150 10250 20183 58007





000
SAUS46 KPDT 291057
MTRMEH
METAR KMEH 291056Z AUTO 00000KT 10SM FEW060 FEW100 BKN110 20/17
A3006 RMK AO2 SLP138 T02000167





000
SAUS46 KPDT 290958
MTRMEH
METAR KMEH 290956Z AUTO 00000KT 10SM FEW090 BKN110 19/17 A3007 RMK
AO2 RAB02E28 SLP142 P0001 T01890167





000
SAUS46 KPDT 290857
MTRMEH
METAR KMEH 290856Z AUTO 00000KT 10SM FEW120 21/15 A3003 RMK AO2
SLP123 60000 T02060150 55001





000
SAUS46 KPDT 290857
MTRMEH
METAR KMEH 290856Z AUTO 00000KT 10SM FEW120 21/15 A3003 RMK AO2
SLP123 60000 T02060150 55001





000
SAUS46 KPDT 290757
MTRMEH
METAR KMEH 290756Z AUTO 00000KT 7SM CLR 21/16 A2999 RMK AO2 RAE06
SLP110 P0000 T02060156 403830122





000
SAUS46 KPDT 290757
MTRMEH
METAR KMEH 290756Z AUTO 00000KT 7SM CLR 21/16 A2999 RMK AO2 RAE06
SLP110 P0000 T02060156 403830122





000
SAUS46 KPDT 290656
MTRMEH
METAR KMEH 290656Z AUTO 00000KT 10SM -RA FEW055 FEW075 SCT090 22/14
A3002 RMK AO2 RAB50 SLP119 P0000 T02220144





000
SAUS46 KPDT 290558
MTRMEH
METAR KMEH 290556Z AUTO VRB03KT 10SM FEW095 25/14 A3003 RMK AO2
RAE01B19E35 SLP123 P0000 60000 T02500139 10328 20228 50016





000
SAUS46 KPDT 290458
MTRMEH
METAR KMEH 290456Z AUTO VRB04KT 7SM -RA FEW100 25/14 A3008 RMK AO2
RAB44 SLP144 P0000 T02500144





000
SAUS46 KPDT 290356
MTRMEH
METAR KMEH 290356Z AUTO 00000KT 10SM CLR 24/17 A3000 RMK AO2 SLP119
T02390172





000
SAUS46 KPDT 290256
MTRMEH
METAR KMEH 290256Z AUTO 00000KT 9SM CLR 26/17 A2998 RMK AO2 SLP116
T02610167 55008





000
SAUS46 KPDT 290157
MTRMEH
METAR KMEH 290156Z AUTO 00000KT 10SM CLR 28/14 A2998 RMK AO2 SLP118
T02830139





000
SAUS46 KPDT 290157
MTRMEH
METAR KMEH 290156Z AUTO 00000KT 10SM CLR 28/14 A2998 RMK AO2 SLP118
T02830139





000
SAUS46 KPDT 290056
MTRMEH
METAR KMEH 290056Z AUTO 00000KT 7SM CLR 32/12 A2998 RMK AO2 SLP120
T03170122





000
SAUS46 KPDT 290056
MTRMEH
METAR KMEH 290056Z AUTO 00000KT 7SM CLR 32/12 A2998 RMK AO2 SLP120
T03170122





000
SAUS46 KPDT 290002 COR
MTRMEH
METAR KMEH 282356Z AUTO VRB03KT 4SM HZ CLR 32/12 A3001 RMK AO2
SLP129 T03170117 10383 20306 58000





000
SAUS46 KPDT 282358
MTRMEH
METAR KMEH 282356Z AUTO VRB03KT 4SM HZ CLR 32/12 A3001 RMK AO2
SLP129 T03170117 10383 20306 58000





000
SAUS46 KPDT 282358
MTRMEH
METAR KMEH 282356Z AUTO VRB03KT 4SM HZ CLR 32/12 A3001 RMK AO2
SLP129 T03170117 10383 20306 58000





000
SAUS46 KPDT 282257
MTRMEH
METAR KMEH 282256Z AUTO 8SM CLR 32/13 A3003 RMK AO2 SLP134 T03220128





000
SAUS46 KPDT 282157
MTRMEH
METAR KMEH 282156Z AUTO VRB03KT 8SM CLR 34/12 A3002 RMK AO2 SLP126
T03440122





000
SAUS46 KPDT 282056
MTRMEH
METAR KMEH 282056Z AUTO VRB03KT 9SM CLR 37/06 A3001 RMK AO2 SLP120
T03720056 56014





000
SAUS46 KPDT 282056
MTRMEH
METAR KMEH 282056Z AUTO VRB03KT 9SM CLR 37/06 A3001 RMK AO2 SLP120
T03720056 56014





000
SAUS46 KPDT 282000
MTRMEH
METAR KMEH 281956Z AUTO VRB03KT 10SM CLR 37/06 A3002 RMK AO2 SLP122
T03720056





000
SAUS46 KPDT 281858
MTRMEH
METAR KMEH 281856Z AUTO 06007KT 9SM CLR 37/06 A3003 RMK AO2 SLP124
T03670061





000
SAUS46 KPDT 281756
MTRMEH
METAR KMEH 281756Z AUTO VRB03KT 5SM HZ CLR 34/11 A3005 RMK AO2
SLP135 T03390111 10339 20122 58004





000
SAUS46 KPDT 281756
MTRMEH
METAR KMEH 281756Z AUTO VRB03KT 5SM HZ CLR 34/11 A3005 RMK AO2
SLP135 T03390111 10339 20122 58004





000
SAUS46 KPDT 281657
MTRMEH
METAR KMEH 281656Z AUTO 00000KT 6SM HZ CLR 32/12 A3006 RMK AO2
SLP138 T03170117





000
SAUS46 KPDT 281557
MTRMEH
METAR KMEH 281556Z AUTO 00000KT 10SM CLR 28/13 A3006 RMK AO2 SLP142
T02830128





000
SAUS46 KPDT 281458
MTRMEH
METAR KMEH 281456Z AUTO 00000KT 10SM CLR 22/14 A3007 RMK AO2 SLP148
T02170139 50002





000
SAUS46 KPDT 281358
MTRMEH
METAR KMEH 281356Z AUTO 00000KT 10SM CLR 17/11 A3007 RMK AO2 SLP151
T01670111





000
SAUS46 KPDT 281358
MTRMEH
METAR KMEH 281356Z AUTO 00000KT 10SM CLR 17/11 A3007 RMK AO2 SLP151
T01670111





000
SAUS46 KPDT 281258
MTRMEH
METAR KMEH 281256Z AUTO 00000KT 10SM CLR 13/10 A3007 RMK AO2 SLP153
T01330100





000
SAUS46 KPDT 281258
MTRMEH
METAR KMEH 281256Z AUTO 00000KT 10SM CLR 13/10 A3007 RMK AO2 SLP153
T01330100





000
SAUS46 KPDT 281157
MTRMEH
METAR KMEH 281156Z AUTO 00000KT 10SM CLR 13/10 A3006 RMK AO2 SLP149
T01280100 10244 20128 55001





000
SAUS46 KPDT 281157
MTRMEH
METAR KMEH 281156Z AUTO 00000KT 10SM CLR 13/10 A3006 RMK AO2 SLP149
T01280100 10244 20128 55001





000
SAUS46 KPDT 281057
MTRMEH
METAR KMEH 281056Z AUTO 00000KT 10SM CLR 14/10 A3006 RMK AO2 SLP141
T01390100





000
SAUS46 KPDT 281057
MTRMEH
METAR KMEH 281056Z AUTO 00000KT 10SM CLR 14/10 A3006 RMK AO2 SLP141
T01390100





000
SAUS46 KPDT 280957
MTRMEH
METAR KMEH 280956Z AUTO 00000KT 10SM CLR 15/11 A3006 RMK AO2 SLP141
T01500106





000
SAUS46 KPDT 280857
MTRMEH
METAR KMEH 280856Z AUTO 00000KT 10SM CLR 16/11 A3006 RMK AO2 SLP139
T01610111 56012





000
SAUS46 KPDT 280758
MTRMEH
METAR KMEH 280756Z AUTO 00000KT 10SM CLR 18/11 A3007 RMK AO2 SLP142
T01780111 403670111





000
SAUS46 KPDT 280657
MTRMEH
METAR KMEH 280656Z AUTO 00000KT 10SM CLR 21/11 A3007 RMK AO2 SLP140
T02060106





000
SAUS46 KPDT 280657
MTRMEH
METAR KMEH 280656Z AUTO 00000KT 10SM CLR 21/11 A3007 RMK AO2 SLP140
T02060106





000
SAUS46 KPDT 280557
MTRMEH
METAR KMEH 280556Z AUTO 00000KT 10SM FEW110 21/13 A3010 RMK AO2
SLP153 60000 T02060133 10311 20200 53009





000
SAUS46 KPDT 280557
MTRMEH
METAR KMEH 280556Z AUTO 00000KT 10SM FEW110 21/13 A3010 RMK AO2
SLP153 60000 T02060133 10311 20200 53009





000
SAUS46 KPDT 280456
MTRMEH
METAR KMEH 280456Z AUTO 00000KT 10SM CLR 21/14 A3007 RMK AO2 SLP144
T02060139





000
SAUS46 KPDT 280456
MTRMEH
METAR KMEH 280456Z AUTO 00000KT 10SM CLR 21/14 A3007 RMK AO2 SLP144
T02060139





000
SAUS46 KPDT 280356
MTRMEH
METAR KMEH 280356Z AUTO 00000KT 10SM CLR 22/14 A3007 RMK AO2 SLP142
T02220139





000
SAUS46 KPDT 280258
MTRMEH
METAR KMEH 280256Z AUTO 00000KT 10SM CLR 24/12 A3007 RMK AO2 SLP146
60000 T02440122 58003





000
SAUS46 KPDT 280157
MTRMEH
METAR KMEH 280156Z AUTO 00000KT 10SM CLR 28/10 A3009 RMK AO2 SLP156
T02830100





000
SAUS46 KPDT 280056
MTRMEH
METAR KMEH 280056Z AUTO 00000KT 10SM FEW055 SCT075 BKN100 30/08
A3008 RMK AO2 RAB28E47 SLP157 P0000 T03000083





000
SAUS46 KPDT 280056
MTRMEH
METAR KMEH 280056Z AUTO 00000KT 10SM FEW055 SCT075 BKN100 30/08
A3008 RMK AO2 RAB28E47 SLP157 P0000 T03000083





000
SAUS46 KPDT 272357
MTRMEH
METAR KMEH 272356Z AUTO VRB03KT 10SM FEW110 30/11 A3008 RMK AO2
SLP158 T03000111 10367 20300 53002





000
SAUS46 KPDT 272357
MTRMEH
METAR KMEH 272356Z AUTO VRB03KT 10SM FEW110 30/11 A3008 RMK AO2
SLP158 T03000111 10367 20300 53002





000
SAUS46 KPDT 272256
MTRMEH
METAR KMEH 272256Z AUTO 10SM CLR 34/09 A3006 RMK AO2 SLP144
T03440089





000
SAUS46 KPDT 272157
MTRMEH
METAR KMEH 272156Z AUTO VRB04KT 10SM CLR 36/07 A3006 RMK AO2 SLP145
T03610072





    US Dept of Commerce
    National Oceanic and Atmospheric Administration
    National Weather Service
    1325 East West Highway
    Silver Spring, MD 20910
    Page Author: NWS Internet Services Team
Disclaimer
Information Quality
Credits
Glossary
Privacy Policy
Freedom of Information Act (FOIA)
About Us
Career Opportunities